sensor_id;sensor_type;location;lat;lon;timestamp;pressure;altitude;pressure_sealevel;temperature;humidity
79236;BME280;69062;47.460;18.812;2023-07-20T00:00:25;99517.09;;;29.27;48.21
79236;BME280;69062;47.460;18.812;2023-07-20T00:01:28;99514.38;;;29.27;48.50
79236;BME280;69062;47.460;18.812;2023-07-20T00:02:31;99516.25;;;29.26;49.15
79236;BME280;69062;47.460;18.812;2023-07-20T00:03:34;99523.56;;;29.26;49.00
79236;BME280;69062;47.460;18.812;2023-07-20T00:04:38;99518.09;;;29.26;48.41
79236;BME280;69062;47.460;18.812;2023-07-20T00:05:41;99513.72;;;29.25;48.40
79236;BME280;69062;47.460;18.812;2023-07-20T00:06:43;99515.59;;;29.24;48.46
79236;BME280;69062;47.460;18.812;2023-07-20T00:07:46;99510.38;;;29.23;49.26
79236;BME280;69062;47.460;18.812;2023-07-20T00:08:49;99517.50;;;29.24;49.15
79236;BME280;69062;47.460;18.812;2023-07-20T00:09:53;99522.94;;;29.24;49.12
79236;BME280;69062;47.460;18.812;2023-07-20T00:10:56;99516.66;;;29.23;49.30
79236;BME280;69062;47.460;18.812;2023-07-20T00:11:59;99513.09;;;29.23;48.79
79236;BME280;69062;47.460;18.812;2023-07-20T00:13:02;99514.16;;;29.22;48.57
79236;BME280;69062;47.460;18.812;2023-07-20T00:14:06;99497.00;;;29.21;49.27
79236;BME280;69062;47.460;18.812;2023-07-20T00:15:09;99502.44;;;29.21;49.48
79236;BME280;69062;47.460;18.812;2023-07-20T00:16:11;99498.06;;;29.20;48.92
79236;BME280;69062;47.460;18.812;2023-07-20T00:17:14;99499.94;;;29.20;49.16
79236;BME280;69062;47.460;18.812;2023-07-20T00:18:17;99502.66;;;29.20;48.95
79236;BME280;69062;47.460;18.812;2023-07-20T00:19:19;99503.69;;;29.19;48.94
79236;BME280;69062;47.460;18.812;2023-07-20T00:20:24;99507.28;;;29.19;49.67
79236;BME280;69062;47.460;18.812;2023-07-20T00:21:27;99509.13;;;29.19;49.08
79236;BME280;69062;47.460;18.812;2023-07-20T00:22:30;99510.19;;;29.18;49.18
79236;BME280;69062;47.460;18.812;2023-07-20T00:23:32;99511.22;;;29.17;49.32
79236;BME280;69062;47.460;18.812;2023-07-20T00:24:37;99516.66;;;29.17;48.47
79236;BME280;69062;47.460;18.812;2023-07-20T00:25:40;99514.78;;;29.17;49.70
79236;BME280;69062;47.460;18.812;2023-07-20T00:26:43;99517.72;;;29.16;49.49
79236;BME280;69062;47.460;18.812;2023-07-20T00:27:46;99520.44;;;29.16;49.18
79236;BME280;69062;47.460;18.812;2023-07-20T00:28:50;99525.88;;;29.16;49.41
79236;BME280;69062;47.460;18.812;2023-07-20T00:29:54;99524.22;;;29.15;48.53
79236;BME280;69062;47.460;18.812;2023-07-20T00:30:59;99529.66;;;29.15;49.23
79236;BME280;69062;47.460;18.812;2023-07-20T00:32:02;99528.81;;;29.14;49.59
79236;BME280;69062;47.460;18.812;2023-07-20T00:33:11;99524.44;;;29.13;49.49
79236;BME280;69062;47.460;18.812;2023-07-20T00:34:14;99522.78;;;29.12;49.37
79236;BME280;69062;47.460;18.812;2023-07-20T00:35:17;99519.19;;;29.11;48.53
79236;BME280;69062;47.460;18.812;2023-07-20T00:36:20;99519.19;;;29.11;49.31
79236;BME280;69062;47.460;18.812;2023-07-20T00:37:23;99523.78;;;29.11;49.66
79236;BME280;69062;47.460;18.812;2023-07-20T00:38:26;99517.53;;;29.10;49.26
79236;BME280;69062;47.460;18.812;2023-07-20T00:39:29;99516.69;;;29.10;48.68
79236;BME280;69062;47.460;18.812;2023-07-20T00:40:38;99506.63;;;29.10;48.69
79236;BME280;69062;47.460;18.812;2023-07-20T00:41:41;99509.56;;;29.09;49.22
79236;BME280;69062;47.460;18.812;2023-07-20T00:42:44;99503.31;;;29.08;49.56
79236;BME280;69062;47.460;18.812;2023-07-20T00:43:46;99506.03;;;29.08;48.86
79236;BME280;69062;47.460;18.812;2023-07-20T00:44:49;99507.06;;;29.07;48.87
79236;BME280;69062;47.460;18.812;2023-07-20T00:45:52;99502.47;;;29.08;48.73
79236;BME280;69062;47.460;18.812;2023-07-20T00:46:55;99502.69;;;29.06;49.50
79236;BME280;69062;47.460;18.812;2023-07-20T00:47:58;99498.91;;;29.07;49.35
79236;BME280;69062;47.460;18.812;2023-07-20T00:49:01;99499.97;;;29.06;49.58
79236;BME280;69062;47.460;18.812;2023-07-20T00:50:05;99501.03;;;29.05;49.80
79236;BME280;69062;47.460;18.812;2023-07-20T00:51:08;99495.56;;;29.05;50.11
79236;BME280;69062;47.460;18.812;2023-07-20T00:52:13;99503.75;;;29.05;49.10
79236;BME280;69062;47.460;18.812;2023-07-20T00:53:18;99494.75;;;29.05;49.20
79236;BME280;69062;47.460;18.812;2023-07-20T00:54:21;99495.78;;;29.04;49.90
79236;BME280;69062;47.460;18.812;2023-07-20T00:55:24;99491.38;;;29.03;49.50
79236;BME280;69062;47.460;18.812;2023-07-20T00:56:28;99488.88;;;29.01;49.37
79236;BME280;69062;47.460;18.812;2023-07-20T00:57:31;99478.84;;;29.02;50.04
79236;BME280;69062;47.460;18.812;2023-07-20T00:58:35;99474.22;;;29.02;49.26
79236;BME280;69062;47.460;18.812;2023-07-20T00:59:38;99476.94;;;29.02;49.51
79236;BME280;69062;47.460;18.812;2023-07-20T01:00:41;99486.16;;;29.01;48.87
79236;BME280;69062;47.460;18.812;2023-07-20T01:01:43;99490.75;;;29.01;49.05
79236;BME280;69062;47.460;18.812;2023-07-20T01:02:47;99496.19;;;29.01;49.66
79236;BME280;69062;47.460;18.812;2023-07-20T01:03:50;99489.09;;;29.00;49.68
79236;BME280;69062;47.460;18.812;2023-07-20T01:04:53;99491.81;;;29.00;48.88
79236;BME280;69062;47.460;18.812;2023-07-20T01:06:01;99480.09;;;28.99;49.49
79236;BME280;69062;47.460;18.812;2023-07-20T01:07:26;99475.72;;;28.98;49.22
79236;BME280;69062;47.460;18.812;2023-07-20T01:08:43;99473.00;;;28.98;49.68
79236;BME280;69062;47.460;18.812;2023-07-20T01:10:17;99475.06;;;28.96;48.96
79236;BME280;69062;47.460;18.812;2023-07-20T01:11:38;99470.47;;;28.97;49.91
79236;BME280;69062;47.460;18.812;2023-07-20T01:12:47;99471.34;;;28.97;49.94
79236;BME280;69062;47.460;18.812;2023-07-20T01:13:53;99463.38;;;28.96;49.78
79236;BME280;69062;47.460;18.812;2023-07-20T01:14:57;99471.53;;;28.96;49.65
79236;BME280;69062;47.460;18.812;2023-07-20T01:16:03;99470.69;;;28.95;49.39
79236;BME280;69062;47.460;18.812;2023-07-20T01:17:06;99473.41;;;28.95;49.94
79236;BME280;69062;47.460;18.812;2023-07-20T01:18:09;99483.44;;;28.95;48.99
79236;BME280;69062;47.460;18.812;2023-07-20T01:19:13;99479.06;;;28.94;48.99
79236;BME280;69062;47.460;18.812;2023-07-20T01:20:20;99478.22;;;28.93;50.08
79236;BME280;69062;47.460;18.812;2023-07-20T01:21:31;99478.22;;;28.93;49.72
79236;BME280;69062;47.460;18.812;2023-07-20T01:22:59;99479.28;;;28.92;49.81
79236;BME280;69062;47.460;18.812;2023-07-20T01:25:50;99472.19;;;28.91;49.03
79236;BME280;69062;47.460;18.812;2023-07-20T01:27:26;99471.13;;;28.92;49.18
79236;BME280;69062;47.460;18.812;2023-07-20T01:31:21;99468.78;;;28.89;49.27
79236;BME280;69062;47.460;18.812;2023-07-20T01:32:26;99474.22;;;28.89;49.32
79236;BME280;69062;47.460;18.812;2023-07-20T01:33:33;99474.44;;;28.88;50.09
79236;BME280;69062;47.460;18.812;2023-07-20T01:34:38;99474.44;;;28.88;50.08
79236;BME280;69062;47.460;18.812;2023-07-20T01:35:43;99477.16;;;28.88;49.26
79236;BME280;69062;47.460;18.812;2023-07-20T01:36:50;99473.59;;;28.87;49.81
79236;BME280;69062;47.460;18.812;2023-07-20T01:37:55;99478.19;;;28.87;49.33
79236;BME280;69062;47.460;18.812;2023-07-20T01:38:59;99480.91;;;28.87;49.90
79236;BME280;69062;47.460;18.812;2023-07-20T01:40:02;99470.25;;;28.85;49.08
79236;BME280;69062;47.460;18.812;2023-07-20T01:41:06;99477.59;;;28.84;49.30
79236;BME280;69062;47.460;18.812;2023-07-20T01:42:09;99484.91;;;28.84;50.33
79236;BME280;69062;47.460;18.812;2023-07-20T01:43:12;99487.63;;;28.84;50.27
79236;BME280;69062;47.460;18.812;2023-07-20T01:44:15;99494.94;;;28.83;49.92
79236;BME280;69062;47.460;18.812;2023-07-20T01:45:18;99493.06;;;28.84;49.40
79236;BME280;69062;47.460;18.812;2023-07-20T01:46:20;99496.63;;;28.84;49.94
79236;BME280;69062;47.460;18.812;2023-07-20T01:47:24;99494.13;;;28.83;50.14
79236;BME280;69062;47.460;18.812;2023-07-20T01:48:27;99488.69;;;28.83;49.76
79236;BME280;69062;47.460;18.812;2023-07-20T01:49:30;99493.25;;;28.82;49.34
79236;BME280;69062;47.460;18.812;2023-07-20T01:50:34;99489.69;;;28.82;50.30
79236;BME280;69062;47.460;18.812;2023-07-20T01:51:37;99491.59;;;28.81;49.43
79236;BME280;69062;47.460;18.812;2023-07-20T01:52:39;99497.03;;;28.81;50.17
79236;BME280;69062;47.460;18.812;2023-07-20T01:53:42;99499.75;;;28.81;49.88
79236;BME280;69062;47.460;18.812;2023-07-20T01:54:45;99505.41;;;28.80;50.33
79236;BME280;69062;47.460;18.812;2023-07-20T01:55:48;99504.56;;;28.79;50.51
79236;BME280;69062;47.460;18.812;2023-07-20T01:56:51;99501.00;;;28.79;49.47
79236;BME280;69062;47.460;18.812;2023-07-20T01:57:55;99498.28;;;28.79;50.47
79236;BME280;69062;47.460;18.812;2023-07-20T01:58:57;99496.63;;;28.78;49.76
79236;BME280;69062;47.460;18.812;2023-07-20T02:00:00;99506.44;;;28.79;49.62
79236;BME280;69062;47.460;18.812;2023-07-20T02:01:15;99505.81;;;28.77;50.26
79236;BME280;69062;47.460;18.812;2023-07-20T02:02:18;99500.38;;;28.77;49.29
79236;BME280;69062;47.460;18.812;2023-07-20T02:03:21;99503.94;;;28.77;49.63
79236;BME280;69062;47.460;18.812;2023-07-20T02:04:24;99507.72;;;28.76;50.41
79236;BME280;69062;47.460;18.812;2023-07-20T02:05:27;99505.81;;;28.77;50.28
79236;BME280;69062;47.460;18.812;2023-07-20T02:06:30;99507.72;;;28.76;50.33
79236;BME280;69062;47.460;18.812;2023-07-20T02:07:33;99498.72;;;28.76;50.17
79236;BME280;69062;47.460;18.812;2023-07-20T02:08:35;99502.47;;;28.75;50.60
79236;BME280;69062;47.460;18.812;2023-07-20T02:09:38;99502.47;;;28.75;49.66
79236;BME280;69062;47.460;18.812;2023-07-20T02:10:45;99510.63;;;28.75;49.13
79236;BME280;69062;47.460;18.812;2023-07-20T02:11:48;99509.78;;;28.74;49.31
79236;BME280;69062;47.460;18.812;2023-07-20T02:12:51;99514.38;;;28.74;49.28
79236;BME280;69062;47.460;18.812;2023-07-20T02:13:55;99518.78;;;28.75;49.53
79236;BME280;69062;47.460;18.812;2023-07-20T02:14:58;99512.72;;;28.73;50.25
79236;BME280;69062;47.460;18.812;2023-07-20T02:16:01;99526.31;;;28.73;49.20
79236;BME280;69062;47.460;18.812;2023-07-20T02:17:04;99530.69;;;28.74;50.22
79236;BME280;69062;47.460;18.812;2023-07-20T02:18:07;99522.75;;;28.72;49.70
79236;BME280;69062;47.460;18.812;2023-07-20T02:19:09;99531.75;;;28.73;49.88
79236;BME280;69062;47.460;18.812;2023-07-20T02:20:13;99521.91;;;28.72;49.49
79236;BME280;69062;47.460;18.812;2023-07-20T02:21:16;99524.63;;;28.72;49.89
79236;BME280;69062;47.460;18.812;2023-07-20T02:22:19;99517.31;;;28.72;49.85
79236;BME280;69062;47.460;18.812;2023-07-20T02:23:21;99522.97;;;28.71;49.56
79236;BME280;69062;47.460;18.812;2023-07-20T02:24:24;99525.69;;;28.71;49.83
79236;BME280;69062;47.460;18.812;2023-07-20T02:25:28;99523.81;;;28.71;49.68
79236;BME280;69062;47.460;18.812;2023-07-20T02:26:31;99527.56;;;28.70;50.31
79236;BME280;69062;47.460;18.812;2023-07-20T02:27:34;99526.53;;;28.71;50.36
79236;BME280;69062;47.460;18.812;2023-07-20T02:28:37;99520.25;;;28.71;50.20
79236;BME280;69062;47.460;18.812;2023-07-20T02:29:41;99511.47;;;28.69;49.66
79236;BME280;69062;47.460;18.812;2023-07-20T02:30:46;99513.38;;;28.68;50.10
79236;BME280;69062;47.460;18.812;2023-07-20T02:31:48;99519.63;;;28.69;49.88
79236;BME280;69062;47.460;18.812;2023-07-20T02:32:51;99511.47;;;28.69;49.61
79236;BME280;69062;47.460;18.812;2023-07-20T02:33:54;99514.19;;;28.69;49.78
79236;BME280;69062;47.460;18.812;2023-07-20T02:34:57;99513.38;;;28.68;49.76
79236;BME280;69062;47.460;18.812;2023-07-20T02:36:01;99514.38;;;28.67;49.57
79236;BME280;69062;47.460;18.812;2023-07-20T02:37:04;99517.94;;;28.68;49.60
79236;BME280;69062;47.460;18.812;2023-07-20T02:38:07;99516.25;;;28.67;50.45
79236;BME280;69062;47.460;18.812;2023-07-20T02:39:10;99520.88;;;28.66;50.44
79236;BME280;69062;47.460;18.812;2023-07-20T02:40:12;99516.25;;;28.67;50.59
79236;BME280;69062;47.460;18.812;2023-07-20T02:41:15;99518.38;;;28.65;49.64
79236;BME280;69062;47.460;18.812;2023-07-20T02:42:18;99520.03;;;28.66;49.63
79236;BME280;69062;47.460;18.812;2023-07-20T02:43:22;99520.88;;;28.66;49.67
79236;BME280;69062;47.460;18.812;2023-07-20T02:44:25;99514.59;;;28.66;50.44
79236;BME280;69062;47.460;18.812;2023-07-20T02:45:29;99531.97;;;28.65;49.97
79236;BME280;69062;47.460;18.812;2023-07-20T02:46:32;99526.53;;;28.65;50.65
79236;BME280;69062;47.460;18.812;2023-07-20T02:47:35;99526.53;;;28.65;49.52
79236;BME280;69062;47.460;18.812;2023-07-20T02:48:38;99540.09;;;28.65;50.32
79236;BME280;69062;47.460;18.812;2023-07-20T02:49:40;99524.00;;;28.63;49.82
79236;BME280;69062;47.460;18.812;2023-07-20T02:50:43;99538.44;;;28.64;50.42
79236;BME280;69062;47.460;18.812;2023-07-20T02:51:46;99530.28;;;28.64;49.98
79236;BME280;69062;47.460;18.812;2023-07-20T02:52:49;99543.88;;;28.64;49.71
79236;BME280;69062;47.460;18.812;2023-07-20T02:53:52;99542.22;;;28.63;50.54
79236;BME280;69062;47.460;18.812;2023-07-20T02:54:55;99542.22;;;28.63;50.31
79236;BME280;69062;47.460;18.812;2023-07-20T02:55:58;99541.38;;;28.62;49.73
79236;BME280;69062;47.460;18.812;2023-07-20T02:57:00;99535.94;;;28.62;49.91
79236;BME280;69062;47.460;18.812;2023-07-20T02:58:03;99544.94;;;28.63;49.88
79236;BME280;69062;47.460;18.812;2023-07-20T02:59:06;99541.38;;;28.62;50.49
79236;BME280;69062;47.460;18.812;2023-07-20T03:00:09;99540.53;;;28.62;49.75
79236;BME280;69062;47.460;18.812;2023-07-20T03:01:14;99541.56;;;28.61;50.63
79236;BME280;69062;47.460;18.812;2023-07-20T03:02:17;99544.28;;;28.61;49.86
79236;BME280;69062;47.460;18.812;2023-07-20T03:03:20;99552.44;;;28.61;49.73
79236;BME280;69062;47.460;18.812;2023-07-20T03:04:26;99552.44;;;28.61;50.87
79236;BME280;69062;47.460;18.812;2023-07-20T03:05:28;99554.31;;;28.60;49.80
79236;BME280;69062;47.460;18.812;2023-07-20T03:06:31;99549.72;;;28.61;50.65
79236;BME280;69062;47.460;18.812;2023-07-20T03:07:34;99542.59;;;28.60;50.04
79236;BME280;69062;47.460;18.812;2023-07-20T03:08:37;99556.19;;;28.60;49.76
79236;BME280;69062;47.460;18.812;2023-07-20T03:09:39;99561.63;;;28.60;49.80
79236;BME280;69062;47.460;18.812;2023-07-20T03:10:43;99551.81;;;28.58;49.96
79236;BME280;69062;47.460;18.812;2023-07-20T03:11:46;99554.53;;;28.58;49.66
79236;BME280;69062;47.460;18.812;2023-07-20T03:12:49;99566.22;;;28.59;49.97
79236;BME280;69062;47.460;18.812;2023-07-20T03:13:52;99559.34;;;28.56;50.59
79236;BME280;69062;47.460;18.812;2023-07-20T03:14:56;99567.28;;;28.58;50.42
79236;BME280;69062;47.460;18.812;2023-07-20T03:16:00;99575.44;;;28.58;50.67
79236;BME280;69062;47.460;18.812;2023-07-20T03:17:04;99563.72;;;28.57;50.08
79236;BME280;69062;47.460;18.812;2023-07-20T03:18:07;99568.31;;;28.57;50.03
79236;BME280;69062;47.460;18.812;2023-07-20T03:19:10;99564.78;;;28.56;50.65
79236;BME280;69062;47.460;18.812;2023-07-20T03:20:13;99563.94;;;28.56;49.57
79236;BME280;69062;47.460;18.812;2023-07-20T03:21:16;99562.06;;;28.56;49.94
79236;BME280;69062;47.460;18.812;2023-07-20T03:22:19;99568.53;;;28.55;49.69
79236;BME280;69062;47.460;18.812;2023-07-20T03:23:21;99563.09;;;28.55;49.69
79236;BME280;69062;47.460;18.812;2023-07-20T03:24:24;99566.88;;;28.54;50.91
79236;BME280;69062;47.460;18.812;2023-07-20T03:25:27;99571.25;;;28.55;50.63
79236;BME280;69062;47.460;18.812;2023-07-20T03:26:30;99563.09;;;28.55;49.75
79236;BME280;69062;47.460;18.812;2023-07-20T03:27:33;99562.28;;;28.55;50.16
79236;BME280;69062;47.460;18.812;2023-07-20T03:28:37;99563.09;;;28.55;50.65
79236;BME280;69062;47.460;18.812;2023-07-20T03:29:41;99569.59;;;28.54;50.83
79236;BME280;69062;47.460;18.812;2023-07-20T03:30:45;99573.13;;;28.55;50.65
79236;BME280;69062;47.460;18.812;2023-07-20T03:31:48;99569.59;;;28.54;50.80
79236;BME280;69062;47.460;18.812;2023-07-20T03:32:52;99570.44;;;28.55;50.88
79236;BME280;69062;47.460;18.812;2023-07-20T03:33:55;99559.72;;;28.53;49.95
79236;BME280;69062;47.460;18.812;2023-07-20T03:34:59;99571.47;;;28.54;50.86
79236;BME280;69062;47.460;18.812;2023-07-20T03:36:02;99577.91;;;28.53;50.82
79236;BME280;69062;47.460;18.812;2023-07-20T03:37:05;99573.31;;;28.53;50.00
79236;BME280;69062;47.460;18.812;2023-07-20T03:38:09;99576.03;;;28.53;50.13
79236;BME280;69062;47.460;18.812;2023-07-20T03:39:11;99574.38;;;28.52;51.05
79236;BME280;69062;47.460;18.812;2023-07-20T03:40:14;99574.38;;;28.52;50.87
79236;BME280;69062;47.460;18.812;2023-07-20T03:41:18;99577.09;;;28.52;50.25
79236;BME280;69062;47.460;18.812;2023-07-20T03:42:23;99574.38;;;28.52;49.97
79236;BME280;69062;47.460;18.812;2023-07-20T03:43:27;99571.03;;;28.50;50.78
79236;BME280;69062;47.460;18.812;2023-07-20T03:44:30;99579.81;;;28.52;49.97
79236;BME280;69062;47.460;18.812;2023-07-20T03:45:33;99576.25;;;28.52;50.81
79236;BME280;69062;47.460;18.812;2023-07-20T03:46:36;99575.41;;;28.51;50.89
79236;BME280;69062;47.460;18.812;2023-07-20T03:47:38;99574.38;;;28.52;50.07
79236;BME280;69062;47.460;18.812;2023-07-20T03:48:41;99572.69;;;28.51;49.88
79236;BME280;69062;47.460;18.812;2023-07-20T03:49:44;99576.47;;;28.50;50.01
79236;BME280;69062;47.460;18.812;2023-07-20T03:50:48;99581.91;;;28.50;51.02
79236;BME280;69062;47.460;18.812;2023-07-20T03:51:50;99578.97;;;28.52;50.38
79236;BME280;69062;47.460;18.812;2023-07-20T03:52:53;99581.06;;;28.50;50.59
79236;BME280;69062;47.460;18.812;2023-07-20T03:53:56;99587.34;;;28.50;50.27
79236;BME280;69062;47.460;18.812;2023-07-20T03:54:59;99591.94;;;28.50;50.42
79236;BME280;69062;47.460;18.812;2023-07-20T03:56:01;99589.22;;;28.50;51.02
79236;BME280;69062;47.460;18.812;2023-07-20T03:57:04;99589.22;;;28.50;50.15
79236;BME280;69062;47.460;18.812;2023-07-20T03:58:07;99592.78;;;28.50;50.80
79236;BME280;69062;47.460;18.812;2023-07-20T03:59:10;99592.78;;;28.50;51.01
79236;BME280;69062;47.460;18.812;2023-07-20T04:00:13;99597.38;;;28.50;50.69
79236;BME280;69062;47.460;18.812;2023-07-20T04:01:17;99600.09;;;28.50;50.12
79236;BME280;69062;47.460;18.812;2023-07-20T04:02:20;99593.19;;;28.47;50.74
79236;BME280;69062;47.460;18.812;2023-07-20T04:03:22;99594.03;;;28.48;50.82
79236;BME280;69062;47.460;18.812;2023-07-20T04:04:29;99591.09;;;28.49;50.13
79236;BME280;69062;47.460;18.812;2023-07-20T04:05:31;99588.59;;;28.48;50.10
79236;BME280;69062;47.460;18.812;2023-07-20T04:06:34;99591.09;;;28.49;50.56
79236;BME280;69062;47.460;18.812;2023-07-20T04:07:38;99584.22;;;28.47;50.52
79236;BME280;69062;47.460;18.812;2023-07-20T04:08:40;99587.75;;;28.47;50.31
79236;BME280;69062;47.460;18.812;2023-07-20T04:09:44;99588.59;;;28.48;49.96
79236;BME280;69062;47.460;18.812;2023-07-20T04:10:47;99582.31;;;28.47;49.96
79236;BME280;69062;47.460;18.812;2023-07-20T04:11:50;99581.50;;;28.47;50.12
79236;BME280;69062;47.460;18.812;2023-07-20T04:12:53;99584.22;;;28.47;50.68
79236;BME280;69062;47.460;18.812;2023-07-20T04:13:55;99583.16;;;28.48;50.13
79236;BME280;69062;47.460;18.812;2023-07-20T04:14:58;99581.50;;;28.47;49.99
79236;BME280;69062;47.460;18.812;2023-07-20T04:16:03;99575.19;;;28.46;50.50
79236;BME280;69062;47.460;18.812;2023-07-20T04:17:05;99569.75;;;28.46;50.45
79236;BME280;69062;47.460;18.812;2023-07-20T04:18:08;99574.19;;;28.47;50.66
79236;BME280;69062;47.460;18.812;2023-07-20T04:19:11;99562.47;;;28.47;50.95
79236;BME280;69062;47.460;18.812;2023-07-20T04:20:14;99567.91;;;28.47;50.76
79236;BME280;69062;47.460;18.812;2023-07-20T04:21:18;99564.31;;;28.46;50.08
79236;BME280;69062;47.460;18.812;2023-07-20T04:22:20;99568.75;;;28.47;50.44
79236;BME280;69062;47.460;18.812;2023-07-20T04:23:24;99569.75;;;28.46;50.43
79236;BME280;69062;47.460;18.812;2023-07-20T04:24:27;99573.34;;;28.47;50.10
79236;BME280;69062;47.460;18.812;2023-07-20T04:25:29;99575.19;;;28.46;50.10
79236;BME280;69062;47.460;18.812;2023-07-20T04:26:37;99567.03;;;28.46;50.14
79236;BME280;69062;47.460;18.812;2023-07-20T04:27:39;99564.31;;;28.46;50.12
79236;BME280;69062;47.460;18.812;2023-07-20T04:28:42;99570.63;;;28.47;50.20
79236;BME280;69062;47.460;18.812;2023-07-20T04:29:49;99569.75;;;28.46;51.04
79236;BME280;69062;47.460;18.812;2023-07-20T04:30:52;99572.47;;;28.46;50.09
79236;BME280;69062;47.460;18.812;2023-07-20T04:31:57;99579.59;;;28.47;50.18
79236;BME280;69062;47.460;18.812;2023-07-20T04:32:59;99571.63;;;28.46;49.75
79236;BME280;69062;47.460;18.812;2023-07-20T04:34:02;99571.47;;;28.47;49.94
79236;BME280;69062;47.460;18.812;2023-07-20T04:35:09;99572.47;;;28.46;50.12
79236;BME280;69062;47.460;18.812;2023-07-20T04:36:15;99577.91;;;28.46;50.56
79236;BME280;69062;47.460;18.812;2023-07-20T04:37:22;99574.34;;;28.46;49.80
79236;BME280;69062;47.460;18.812;2023-07-20T04:38:25;99574.34;;;28.46;49.39
79236;BME280;69062;47.460;18.812;2023-07-20T04:39:49;99576.25;;;28.45;50.01
79236;BME280;69062;47.460;18.812;2023-07-20T04:40:54;99576.25;;;28.45;49.81
79236;BME280;69062;47.460;18.812;2023-07-20T04:41:58;99582.72;;;28.44;49.59
79236;BME280;69062;47.460;18.812;2023-07-20T04:43:01;99578.13;;;28.45;48.38
79236;BME280;69062;47.460;18.812;2023-07-20T04:44:04;99579.16;;;28.44;48.12
79236;BME280;69062;47.460;18.812;2023-07-20T04:45:07;99579.16;;;28.44;48.33
79236;BME280;69062;47.460;18.812;2023-07-20T04:46:12;99580.22;;;28.43;48.72
79236;BME280;69062;47.460;18.812;2023-07-20T04:47:15;99585.66;;;28.43;48.22
79236;BME280;69062;47.460;18.812;2023-07-20T04:48:18;99583.16;;;28.41;47.67
79236;BME280;69062;47.460;18.812;2023-07-20T04:49:25;99583.97;;;28.42;48.37
79236;BME280;69062;47.460;18.812;2023-07-20T04:50:28;99588.56;;;28.41;48.29
79236;BME280;69062;47.460;18.812;2023-07-20T04:51:31;99594.00;;;28.41;48.13
79236;BME280;69062;47.460;18.812;2023-07-20T04:52:35;99587.75;;;28.41;49.09
79236;BME280;69062;47.460;18.812;2023-07-20T04:53:47;99592.34;;;28.40;48.35
79236;BME280;69062;47.460;18.812;2023-07-20T04:54:50;99584.38;;;28.39;47.04
79236;BME280;69062;47.460;18.812;2023-07-20T04:55:55;99590.66;;;28.39;47.53
79236;BME280;69062;47.460;18.812;2023-07-20T04:56:59;99588.13;;;28.38;46.93
79236;BME280;69062;47.460;18.812;2023-07-20T04:58:03;99590.84;;;28.38;47.44
79236;BME280;69062;47.460;18.812;2023-07-20T04:59:06;99593.56;;;28.38;48.13
79236;BME280;69062;47.460;18.812;2023-07-20T05:00:10;99595.44;;;28.37;47.45
79236;BME280;69062;47.460;18.812;2023-07-20T05:01:16;99591.06;;;28.36;48.10
79236;BME280;69062;47.460;18.812;2023-07-20T05:02:19;99587.50;;;28.36;48.12
79236;BME280;69062;47.460;18.812;2023-07-20T05:03:22;99588.34;;;28.36;48.04
79236;BME280;69062;47.460;18.812;2023-07-20T05:04:25;99591.06;;;28.36;47.76
79236;BME280;69062;47.460;18.812;2023-07-20T05:05:31;99600.25;;;28.35;47.79
79236;BME280;69062;47.460;18.812;2023-07-20T05:06:34;99592.13;;;28.35;47.37
79236;BME280;69062;47.460;18.812;2023-07-20T05:07:37;99584.19;;;28.34;46.65
79236;BME280;69062;47.460;18.812;2023-07-20T05:08:40;99586.06;;;28.33;47.50
79236;BME280;69062;47.460;18.812;2023-07-20T05:09:43;99590.44;;;28.34;47.40
79236;BME280;69062;47.460;18.812;2023-07-20T05:10:45;99591.50;;;28.33;46.67
79236;BME280;69062;47.460;18.812;2023-07-20T05:11:48;99585.22;;;28.33;47.36
79236;BME280;69062;47.460;18.812;2023-07-20T05:12:52;99588.13;;;28.31;46.75
79236;BME280;69062;47.460;18.812;2023-07-20T05:13:54;99587.09;;;28.32;47.40
79236;BME280;69062;47.460;18.812;2023-07-20T05:14:57;99583.53;;;28.32;47.20
79236;BME280;69062;47.460;18.812;2023-07-20T05:16:01;99584.56;;;28.30;48.18
79236;BME280;69062;47.460;18.812;2023-07-20T05:17:05;99585.78;;;28.28;47.71
79236;BME280;69062;47.460;18.812;2023-07-20T05:18:08;99594.59;;;28.30;47.78
79236;BME280;69062;47.460;18.812;2023-07-20T05:19:11;99590.19;;;28.29;47.86
79236;BME280;69062;47.460;18.812;2023-07-20T05:20:13;99592.91;;;28.29;46.98
79236;BME280;69062;47.460;18.812;2023-07-20T05:21:16;99584.97;;;28.27;46.91
79236;BME280;69062;47.460;18.812;2023-07-20T05:22:19;99590.19;;;28.29;47.53
79236;BME280;69062;47.460;18.812;2023-07-20T05:23:22;99588.50;;;28.28;47.59
79236;BME280;69062;47.460;18.812;2023-07-20T05:24:25;99592.28;;;28.27;47.03
79236;BME280;69062;47.460;18.812;2023-07-20T05:25:28;99586.00;;;28.26;47.31
79236;BME280;69062;47.460;18.812;2023-07-20T05:26:33;99587.66;;;28.27;47.74
79236;BME280;69062;47.460;18.812;2023-07-20T05:27:39;99579.53;;;28.27;47.38
79236;BME280;69062;47.460;18.812;2023-07-20T05:28:41;99586.84;;;28.27;47.18
79236;BME280;69062;47.460;18.812;2023-07-20T05:29:45;99591.44;;;28.26;47.64
79236;BME280;69062;47.460;18.812;2023-07-20T05:30:48;99593.09;;;28.27;48.48
79236;BME280;69062;47.460;18.812;2023-07-20T05:31:54;99596.03;;;28.26;47.89
79236;BME280;69062;47.460;18.812;2023-07-20T05:32:57;99599.59;;;28.26;48.13
79236;BME280;69062;47.460;18.812;2023-07-20T05:34:00;99596.88;;;28.26;48.82
79236;BME280;69062;47.460;18.812;2023-07-20T05:35:03;99590.59;;;28.26;49.07
79236;BME280;69062;47.460;18.812;2023-07-20T05:36:06;99597.69;;;28.27;48.06
79236;BME280;69062;47.460;18.812;2023-07-20T05:37:08;99599.38;;;28.28;48.19
79236;BME280;69062;47.460;18.812;2023-07-20T05:38:15;99597.69;;;28.27;47.78
79236;BME280;69062;47.460;18.812;2023-07-20T05:39:17;99600.41;;;28.27;48.13